createdAt,value
2023-01-30T00:01:17.816Z,11.23
2023-01-30T00:03:45.054Z,13.13
2023-01-30T00:06:11.958Z,12.18
2023-01-30T00:08:38.809Z,11.23
2023-01-30T00:11:06.958Z,11.82
2023-01-30T00:13:33.782Z,13.35
2023-01-30T00:16:00.443Z,12.43
2023-01-30T00:18:27.221Z,12.20
2023-01-30T00:20:58.855Z,12.98
2023-01-30T00:23:26.326Z,11.82
2023-01-30T00:25:53.385Z,13.75
2023-01-30T00:28:19.956Z,12.57
2023-01-30T00:30:51.179Z,13.25
2023-01-30T00:33:18.828Z,11.73
2023-01-30T00:35:46.923Z,11.45
2023-01-30T00:38:14.075Z,10.25
2023-01-30T00:40:41.818Z,10.30
2023-01-30T00:43:33.678Z,12.07
2023-01-30T00:46:21.580Z,11.68
2023-01-30T00:48:48.325Z,11.63
2023-01-30T00:51:14.912Z,12.80
2023-01-30T00:53:41.499Z,11.18
2023-01-30T00:56:08.124Z,10.63
2023-01-30T00:58:35.389Z,11.25
2023-01-30T01:01:03.138Z,11.57
2023-01-30T01:03:29.767Z,10.13
2023-01-30T01:05:56.295Z,10.23
2023-01-30T01:08:22.903Z,10.13
2023-01-30T01:10:49.508Z,10.35
2023-01-30T01:13:16.177Z,10.68
2023-01-30T01:15:42.686Z,10.93
2023-01-30T01:18:09.498Z,10.77
2023-01-30T01:20:36.064Z,11.15
2023-01-30T01:23:03.285Z,10.02
2023-01-30T01:25:29.857Z,11.40
2023-01-30T01:27:56.595Z,9.27
2023-01-30T01:30:23.909Z,10.13
2023-01-30T01:32:50.513Z,10.85
2023-01-30T01:35:17.378Z,10.00
2023-01-30T01:37:44.169Z,11.00
2023-01-30T01:40:36.531Z,11.80
2023-01-30T01:43:14.927Z,10.45
2023-01-30T01:45:42.234Z,11.18
2023-01-30T01:48:32.477Z,11.65
2023-01-30T01:51:05.674Z,11.13
2023-01-30T01:53:42.695Z,10.82
2023-01-30T01:56:12.444Z,11.43
2023-01-30T01:59:03.069Z,10.02
2023-01-30T02:01:30.136Z,9.82
2023-01-30T02:04:01.898Z,9.90
2023-01-30T02:06:29.731Z,10.52
2023-01-30T02:09:02.467Z,12.30
2023-01-30T02:11:53.286Z,10.95
2023-01-30T02:14:21.997Z,10.40
2023-01-30T02:16:50.648Z,8.45
2023-01-30T02:19:20.224Z,11.02
2023-01-30T02:22:09.467Z,12.38
2023-01-30T02:25:07.980Z,11.32
2023-01-30T02:28:00.298Z,11.98
2023-01-30T02:30:52.225Z,11.75
2023-01-30T02:33:36.109Z,11.20
2023-01-30T02:36:16.537Z,11.35
2023-01-30T02:39:12.029Z,11.68
2023-01-30T02:41:55.389Z,11.65
2023-01-30T02:44:37.292Z,11.02
2023-01-30T02:47:18.970Z,11.85
2023-01-30T02:49:54.637Z,11.52
2023-01-30T02:52:22.495Z,12.32
2023-01-30T02:54:49.015Z,10.40
2023-01-30T02:57:22.257Z,12.60
2023-01-30T02:59:56.927Z,12.65
2023-01-30T03:02:45.336Z,11.07
2023-01-30T03:05:49.404Z,11.48
2023-01-30T03:08:33.836Z,11.00
2023-01-30T03:11:05.531Z,11.95
2023-01-30T03:13:49.211Z,12.50
2023-01-30T03:16:35.242Z,11.83
2023-01-30T03:19:03.897Z,11.18
2023-01-30T03:21:31.727Z,11.38
2023-01-30T03:23:58.675Z,12.98
2023-01-30T03:26:30.994Z,12.38
2023-01-30T03:28:58.279Z,12.48
2023-01-30T03:31:24.949Z,11.82
2023-01-30T03:33:51.552Z,13.43
2023-01-30T03:36:18.364Z,11.73
2023-01-30T03:38:45.146Z,9.93
2023-01-30T03:41:11.785Z,11.43
2023-01-30T03:43:39.244Z,12.15
2023-01-30T03:46:06.155Z,12.27
2023-01-30T03:48:32.719Z,11.35
2023-01-30T03:50:59.418Z,11.73
2023-01-30T03:53:26.031Z,11.98
2023-01-30T03:55:53.349Z,10.60
2023-01-30T03:58:25.218Z,10.82
2023-01-30T04:00:52.140Z,10.18
2023-01-30T04:03:18.744Z,11.13
2023-01-30T04:05:45.436Z,10.43
2023-01-30T04:08:12.639Z,10.70
2023-01-30T04:10:39.135Z,9.95
2023-01-30T04:13:06.148Z,9.70
2023-01-30T04:15:33.284Z,10.32
2023-01-30T04:18:18.590Z,12.02
2023-01-30T04:21:02.129Z,9.65
2023-01-30T04:23:34.751Z,9.27
2023-01-30T04:26:02.228Z,8.13
2023-01-30T04:28:28.863Z,7.95
2023-01-30T04:30:56.130Z,8.27
2023-01-30T04:33:43.604Z,9.90
2023-01-30T04:36:12.636Z,8.65
2023-01-30T04:38:40.259Z,9.57
2023-01-30T04:41:07.852Z,9.93
2023-01-30T04:43:37.610Z,9.45
2023-01-30T04:46:25.776Z,8.15
2023-01-30T04:48:52.648Z,8.68
2023-01-30T04:51:19.474Z,8.52
2023-01-30T04:53:47.181Z,8.32
2023-01-30T04:56:13.794Z,8.63
2023-01-30T04:58:40.631Z,7.75
2023-01-30T05:01:35.019Z,7.25
2023-01-30T05:04:02.903Z,7.28
2023-01-30T05:06:30.865Z,7.60
2023-01-30T05:08:58.477Z,6.63
2023-01-30T05:11:27.341Z,6.50
2023-01-30T05:13:54.300Z,8.07
2023-01-30T05:16:22.441Z,8.10
2023-01-30T05:18:49.593Z,6.38
2023-01-30T05:21:19.558Z,6.32
2023-01-30T05:23:46.172Z,6.80
2023-01-30T05:26:13.964Z,6.57
2023-01-30T05:28:41.465Z,6.15
2023-01-30T05:31:13.535Z,6.03
2023-01-30T05:33:41.225Z,6.50
2023-01-30T05:36:13.743Z,5.60
2023-01-30T05:38:40.347Z,5.22
2023-01-30T05:41:08.288Z,6.18
2023-01-30T05:43:35.318Z,5.10
2023-01-30T05:46:05.567Z,5.20
2023-01-30T05:48:33.351Z,6.65
2023-01-30T05:51:00.033Z,5.53
2023-01-30T05:53:29.382Z,5.78
2023-01-30T05:55:57.800Z,5.53
2023-01-30T05:58:24.937Z,5.47
2023-01-30T06:00:51.756Z,5.50
2023-01-30T06:03:18.655Z,4.70
2023-01-30T06:05:45.451Z,5.38
2023-01-30T06:08:12.410Z,5.32
2023-01-30T06:10:39.009Z,5.05
2023-01-30T06:13:05.634Z,5.40
2023-01-30T06:15:33.067Z,5.25
2023-01-30T06:17:59.709Z,5.78
2023-01-30T06:20:26.225Z,5.78
2023-01-30T06:22:52.778Z,6.47
2023-01-30T06:25:19.777Z,5.18
2023-01-30T06:27:46.683Z,5.78
2023-01-30T06:30:13.620Z,5.57
2023-01-30T06:32:40.288Z,5.32
2023-01-30T06:35:07.390Z,5.35
2023-01-30T06:37:34.019Z,4.93
2023-01-30T06:40:00.624Z,5.03
2023-01-30T06:42:27.165Z,4.35
2023-01-30T06:44:53.696Z,4.90
2023-01-30T06:47:20.370Z,5.35
2023-01-30T06:49:49.080Z,4.35
2023-01-30T06:52:15.611Z,4.47
2023-01-30T06:54:42.139Z,4.60
2023-01-30T06:57:08.827Z,4.00
2023-01-30T06:59:35.377Z,3.47
2023-01-30T07:02:02.191Z,4.00
2023-01-30T07:04:29.027Z,4.63
2023-01-30T07:06:55.729Z,3.83
2023-01-30T07:09:22.261Z,4.85
2023-01-30T07:11:50.252Z,4.32
2023-01-30T07:14:16.793Z,3.67
2023-01-30T07:16:43.408Z,4.70
2023-01-30T07:19:10.201Z,3.30
2023-01-30T07:21:36.800Z,3.30
2023-01-30T07:24:03.501Z,4.05
2023-01-30T07:26:31.199Z,2.92
2023-01-30T07:28:58.219Z,3.70
2023-01-30T07:31:24.924Z,3.65
2023-01-30T07:33:51.570Z,3.38
2023-01-30T07:36:18.244Z,2.83
2023-01-30T07:38:44.797Z,3.13
2023-01-30T07:41:11.422Z,3.50
2023-01-30T07:43:37.994Z,3.22
2023-01-30T07:46:04.736Z,2.95
2023-01-30T07:48:31.349Z,2.25
2023-01-30T07:50:57.966Z,2.03
2023-01-30T07:53:24.807Z,2.53
2023-01-30T07:55:51.643Z,2.53
2023-01-30T07:58:18.319Z,2.42
2023-01-30T08:00:45.216Z,1.80
2023-01-30T08:03:16.876Z,1.95
2023-01-30T08:05:46.808Z,1.45
2023-01-30T08:08:13.720Z,2.03
2023-01-30T08:10:40.219Z,1.30
2023-01-30T08:13:06.816Z,2.25
2023-01-30T08:15:33.458Z,1.50
2023-01-30T08:18:00.288Z,2.15
2023-01-30T08:20:28.228Z,1.42
2023-01-30T08:22:55.206Z,1.15
2023-01-30T08:25:22.833Z,1.38
2023-01-30T08:27:49.783Z,1.13
2023-01-30T08:30:17.101Z,1.20
2023-01-30T08:32:44.047Z,1.92
2023-01-30T08:35:10.899Z,1.40
2023-01-30T08:37:40.060Z,2.08
2023-01-30T08:40:07.728Z,1.92
2023-01-30T08:42:34.338Z,1.02
2023-01-30T08:45:01.009Z,1.45
2023-01-30T08:47:27.610Z,1.25
2023-01-30T08:49:54.292Z,1.80
2023-01-30T08:52:20.942Z,1.23
2023-01-30T08:54:47.492Z,1.83
2023-01-30T08:57:15.338Z,1.13
2023-01-30T08:59:41.840Z,1.52
2023-01-30T09:02:12.661Z,2.67
2023-01-30T09:04:40.077Z,1.27
2023-01-30T09:07:06.590Z,1.60
2023-01-30T09:09:33.294Z,1.77
2023-01-30T09:11:59.762Z,1.25
2023-01-30T09:14:26.460Z,1.40
2023-01-30T09:16:55.968Z,1.73
2023-01-30T09:19:24.131Z,1.98
2023-01-30T09:21:51.744Z,1.13
2023-01-30T09:24:19.379Z,1.52
2023-01-30T09:26:46.148Z,1.40
2023-01-30T09:29:12.915Z,1.30
2023-01-30T09:31:39.681Z,1.65
2023-01-30T09:34:07.800Z,1.15
2023-01-30T09:36:34.313Z,2.03
2023-01-30T09:39:00.879Z,2.05
2023-01-30T09:41:42.704Z,1.83
2023-01-30T09:44:12.346Z,2.25
2023-01-30T09:47:11.922Z,2.13
2023-01-30T09:49:56.552Z,1.30
2023-01-30T09:52:51.345Z,1.70
2023-01-30T09:55:32.756Z,1.55
2023-01-30T09:58:00.772Z,1.70
2023-01-30T10:00:39.424Z,1.77
2023-01-30T10:03:09.543Z,2.63
2023-01-30T10:05:52.913Z,1.63
2023-01-30T10:08:34.835Z,1.92
2023-01-30T10:11:19.579Z,1.73
2023-01-30T10:14:13.342Z,1.88
2023-01-30T10:17:07.261Z,2.03
2023-01-30T10:19:44.903Z,2.92
2023-01-30T10:22:36.268Z,2.33
2023-01-30T10:25:13.894Z,1.38
2023-01-30T10:27:51.431Z,1.83
2023-01-30T10:30:18.948Z,2.20
2023-01-30T10:32:56.888Z,2.15
2023-01-30T10:35:27.450Z,1.33
2023-01-30T10:38:16.250Z,1.33
2023-01-30T10:40:49.152Z,1.63
2023-01-30T10:43:27.584Z,1.77
2023-01-30T10:46:21.843Z,1.88
2023-01-30T10:49:01.513Z,1.25
2023-01-30T10:51:55.453Z,2.00
2023-01-30T10:54:26.430Z,1.25
2023-01-30T10:56:58.850Z,1.42
2023-01-30T10:59:43.059Z,2.00
2023-01-30T11:02:43.310Z,1.73
2023-01-30T11:05:16.424Z,1.60
2023-01-30T11:07:45.888Z,1.77
2023-01-30T11:10:17.293Z,1.90
2023-01-30T11:12:43.976Z,1.55
2023-01-30T11:15:11.790Z,1.23
2023-01-30T11:17:43.066Z,1.75
2023-01-30T11:20:22.440Z,1.60
2023-01-30T11:23:00.099Z,1.70
2023-01-30T11:25:26.759Z,1.70
2023-01-30T11:28:01.899Z,1.38
2023-01-30T11:30:35.496Z,1.55
2023-01-30T11:33:13.259Z,1.63
2023-01-30T11:35:54.200Z,2.20
2023-01-30T11:38:24.519Z,1.58
2023-01-30T11:41:02.083Z,1.65
2023-01-30T11:43:28.829Z,1.38
2023-01-30T11:45:55.993Z,1.77
2023-01-30T11:49:01.271Z,1.45
2023-01-30T11:51:19.296Z,1.52
2023-01-30T11:53:50.733Z,1.83
2023-01-30T11:56:24.343Z,1.70
2023-01-30T11:59:04.763Z,1.33
2023-01-30T12:01:34.820Z,1.38
2023-01-30T12:04:06.393Z,1.73
2023-01-30T12:06:37.085Z,1.23
2023-01-30T12:09:04.424Z,2.13
2023-01-30T12:11:36.991Z,1.35
2023-01-30T12:14:26.934Z,1.17
2023-01-30T12:17:21.351Z,1.38
2023-01-30T12:20:16.122Z,1.73
2023-01-30T12:22:46.428Z,2.05
2023-01-30T12:25:15.897Z,0.80
2023-01-30T12:27:54.255Z,1.15
2023-01-30T12:30:56.372Z,1.60
2023-01-30T12:33:28.902Z,1.60
2023-01-30T12:36:07.766Z,1.15
2023-01-30T12:38:52.932Z,1.75
2023-01-30T12:41:52.567Z,0.82
2023-01-30T12:44:41.850Z,1.50
2023-01-30T12:47:41.985Z,1.95
2023-01-30T12:50:29.758Z,1.23
2023-01-30T12:53:17.843Z,1.35
2023-01-30T12:56:12.246Z,1.38
2023-01-30T12:58:45.835Z,1.70
2023-01-30T13:01:37.948Z,0.95
2023-01-30T13:05:01.761Z,1.73
2023-01-30T13:07:31.755Z,1.52
2023-01-30T13:10:27.871Z,1.27
2023-01-30T13:13:21.544Z,1.55
2023-01-30T13:16:06.515Z,1.60
2023-01-30T13:18:42.782Z,1.40
2023-01-30T13:21:46.803Z,1.67
2023-01-30T13:24:18.538Z,1.10
2023-01-30T13:26:48.136Z,1.30
2023-01-30T13:29:31.200Z,1.58
2023-01-30T13:32:02.367Z,1.40
2023-01-30T13:34:44.431Z,1.48
2023-01-30T13:37:13.612Z,1.58
2023-01-30T13:40:23.838Z,1.77
2023-01-30T13:42:58.152Z,1.90
2023-01-30T13:45:35.411Z,1.63
2023-01-30T13:48:14.203Z,1.30
2023-01-30T13:51:08.555Z,1.45
2023-01-30T13:53:45.981Z,0.90
2023-01-30T13:56:41.438Z,1.50
2023-01-30T13:59:30.292Z,1.77
2023-01-30T14:02:01.975Z,1.30
2023-01-30T14:04:40.928Z,1.60
2023-01-30T14:07:41.705Z,2.17
2023-01-30T14:10:20.952Z,1.05
2023-01-30T14:12:50.883Z,1.77
2023-01-30T14:15:20.628Z,2.05
2023-01-30T14:18:14.462Z,1.75
2023-01-30T14:20:45.719Z,1.10
2023-01-30T14:23:53.396Z,2.10
2023-01-30T14:26:48.747Z,1.80
2023-01-30T14:29:42.973Z,1.80
2023-01-30T14:32:13.040Z,2.05
2023-01-30T14:34:43.167Z,0.90
2023-01-30T14:37:41.943Z,2.03
2023-01-30T14:40:20.768Z,1.67
2023-01-30T14:43:11.972Z,2.00
2023-01-30T14:45:56.091Z,1.60
2023-01-30T14:48:51.798Z,1.20
2023-01-30T14:51:26.045Z,1.20
2023-01-30T14:54:04.734Z,2.13
2023-01-30T14:56:39.453Z,1.58
2023-01-30T14:59:37.760Z,1.48
2023-01-30T15:02:12.260Z,1.65
2023-01-30T15:04:44.519Z,1.97
2023-01-30T15:07:30.166Z,1.20
2023-01-30T15:10:05.403Z,1.98
2023-01-30T15:13:00.772Z,1.95
2023-01-30T15:15:48.055Z,1.37
2023-01-30T15:18:17.321Z,1.60
2023-01-30T15:20:55.696Z,1.70
2023-01-30T15:23:44.180Z,1.33
2023-01-30T15:26:38.558Z,1.67
2023-01-30T15:29:30.208Z,1.70
2023-01-30T15:32:01.881Z,1.90
2023-01-30T15:34:30.877Z,1.17
2023-01-30T15:36:57.737Z,1.70
2023-01-30T15:39:26.234Z,1.63
2023-01-30T15:41:57.167Z,1.58
2023-01-30T15:44:29.723Z,1.25
2023-01-30T15:47:33.587Z,1.60
2023-01-30T15:50:06.977Z,2.17
2023-01-30T15:52:48.135Z,1.45
2023-01-30T15:55:26.601Z,2.05
2023-01-30T15:57:58.313Z,1.48
2023-01-30T16:00:28.637Z,1.05
2023-01-30T16:02:56.708Z,1.67
2023-01-30T16:05:26.013Z,1.33
2023-01-30T16:07:54.852Z,2.05
2023-01-30T16:10:29.899Z,1.00
2023-01-30T16:12:58.324Z,1.50
2023-01-30T16:15:46.342Z,2.00
2023-01-30T16:18:41.054Z,2.20
2023-01-30T16:21:15.435Z,1.60
2023-01-30T16:23:52.682Z,1.85
2023-01-30T16:26:21.691Z,1.42
2023-01-30T16:28:50.719Z,1.55
2023-01-30T16:31:18.384Z,1.67
2023-01-30T16:33:51.977Z,1.15
2023-01-30T16:36:21.550Z,1.52
2023-01-30T16:38:50.317Z,1.45
2023-01-30T16:41:31.036Z,1.25
2023-01-30T16:44:19.354Z,1.33
2023-01-30T16:46:51.772Z,2.25
2023-01-30T16:49:23.089Z,1.50
2023-01-30T16:51:58.392Z,1.25
2023-01-30T16:54:28.453Z,1.13
2023-01-30T16:56:58.019Z,1.70
2023-01-30T16:59:33.380Z,1.38
2023-01-30T17:02:02.627Z,1.48
2023-01-30T17:04:31.589Z,2.33
2023-01-30T17:07:01.159Z,1.80
2023-01-30T17:09:33.619Z,1.73
2023-01-30T17:12:00.294Z,0.80
2023-01-30T17:14:31.204Z,0.95
2023-01-30T17:17:08.264Z,1.35
2023-01-30T17:19:35.879Z,1.85
2023-01-30T17:22:08.564Z,1.65
2023-01-30T17:24:36.020Z,1.40
2023-01-30T17:27:04.371Z,1.42
2023-01-30T17:29:42.496Z,1.00
2023-01-30T17:32:14.991Z,1.30
2023-01-30T17:34:41.827Z,1.48
2023-01-30T17:37:15.432Z,1.88
2023-01-30T17:39:42.006Z,1.58
2023-01-30T17:42:13.148Z,1.70
2023-01-30T17:44:40.399Z,1.23
2023-01-30T17:47:10.804Z,2.08
2023-01-30T17:49:37.420Z,1.52
2023-01-30T17:52:04.129Z,1.27
2023-01-30T17:54:30.722Z,1.85
2023-01-30T17:57:03.232Z,1.85
2023-01-30T17:59:31.034Z,1.88
2023-01-30T18:01:57.601Z,1.90
2023-01-30T18:04:24.223Z,1.27
2023-01-30T18:06:55.381Z,1.67
2023-01-30T18:09:23.573Z,1.55
2023-01-30T18:11:51.064Z,1.67
2023-01-30T18:14:18.443Z,1.52
2023-01-30T18:16:45.144Z,2.42
2023-01-30T18:19:14.038Z,1.30
2023-01-30T18:21:44.832Z,1.13
2023-01-30T18:24:12.559Z,1.67
2023-01-30T18:26:40.306Z,2.22
2023-01-30T18:29:09.506Z,1.10
2023-01-30T18:31:36.268Z,1.52
2023-01-30T18:34:02.841Z,1.98
2023-01-30T18:36:29.393Z,1.30
2023-01-30T18:38:56.161Z,1.75
2023-01-30T18:41:24.456Z,1.30
2023-01-30T18:43:56.127Z,1.77
2023-01-30T18:46:23.262Z,1.73
2023-01-30T18:48:49.790Z,2.33
2023-01-30T18:51:18.720Z,1.55
2023-01-30T18:53:47.816Z,1.73
2023-01-30T18:56:20.887Z,1.77
2023-01-30T18:58:52.319Z,1.75
2023-01-30T19:01:21.752Z,1.30
2023-01-30T19:03:48.725Z,1.23
2023-01-30T19:06:18.261Z,1.63
2023-01-30T19:09:53.346Z,1.95
2023-01-30T19:12:38.565Z,1.75
2023-01-30T19:15:05.979Z,2.42
2023-01-30T19:17:32.504Z,2.03
2023-01-30T19:20:01.789Z,1.70
2023-01-30T19:22:28.410Z,0.93
2023-01-30T19:24:55.655Z,1.48
2023-01-30T19:27:22.641Z,1.48
2023-01-30T19:29:50.318Z,1.80
2023-01-30T19:32:16.856Z,1.50
2023-01-30T19:34:43.924Z,1.65
2023-01-30T19:37:10.659Z,1.98
2023-01-30T19:39:37.456Z,1.42
2023-01-30T19:43:10.790Z,1.75
2023-01-30T19:45:42.314Z,1.73
2023-01-30T19:48:10.729Z,1.55
2023-01-30T19:50:37.712Z,1.58
2023-01-30T19:53:04.717Z,1.52
2023-01-30T19:55:35.057Z,1.58
2023-01-30T19:58:01.971Z,1.80
2023-01-30T20:00:28.673Z,1.35
2023-01-30T20:02:56.832Z,1.90
2023-01-30T20:05:23.555Z,1.27
2023-01-30T20:07:50.127Z,1.45
2023-01-30T20:10:17.601Z,2.05
2023-01-30T20:12:45.013Z,1.48
2023-01-30T20:15:11.707Z,1.55
2023-01-30T20:17:38.293Z,1.67
2023-01-30T20:20:06.595Z,1.45
2023-01-30T20:26:48.222Z,2.58
2023-01-30T20:29:17.371Z,1.55
2023-01-30T20:31:43.971Z,1.85
2023-01-30T20:34:12.793Z,2.15
2023-01-30T20:36:39.409Z,1.90
2023-01-30T20:39:07.582Z,2.05
2023-01-30T20:41:36.476Z,2.08
2023-01-30T20:44:04.978Z,1.80
2023-01-30T20:46:40.734Z,2.25
2023-01-30T20:51:37.495Z,1.52
2023-01-30T20:54:07.574Z,1.77
2023-01-30T20:56:37.358Z,2.47
2023-01-30T20:59:06.211Z,1.83
2023-01-30T21:01:33.673Z,1.95
2023-01-30T21:04:06.423Z,2.08
2023-01-30T21:06:41.821Z,2.25
2023-01-30T21:09:18.107Z,2.05
2023-01-30T21:11:45.376Z,1.38
2023-01-30T21:14:12.374Z,2.38
2023-01-30T21:16:39.647Z,2.72
2023-01-30T21:19:09.652Z,1.67
2023-01-30T21:21:40.612Z,1.48
2023-01-30T21:24:14.077Z,1.63
2023-01-30T21:26:44.494Z,1.73
2023-01-30T21:29:12.037Z,2.60
2023-01-30T21:31:40.230Z,2.03
2023-01-30T21:34:08.025Z,1.95
2023-01-30T21:36:34.565Z,1.70
2023-01-30T21:39:19.454Z,2.60
2023-01-30T21:42:05.404Z,2.95
2023-01-30T21:44:37.068Z,1.60
2023-01-30T21:47:05.579Z,1.98
2023-01-30T21:49:32.447Z,1.67
2023-01-30T21:51:58.994Z,1.50
2023-01-30T21:54:25.689Z,1.02
2023-01-30T21:56:52.409Z,1.45
2023-01-30T21:59:18.937Z,1.77
2023-01-30T22:01:46.020Z,1.60
2023-01-30T22:04:14.985Z,1.95
2023-01-30T22:06:42.467Z,1.10
2023-01-30T22:09:12.959Z,1.80
2023-01-30T22:11:39.807Z,2.30
2023-01-30T22:14:06.402Z,2.17
2023-01-30T22:16:33.523Z,1.50
2023-01-30T22:19:02.752Z,1.60
2023-01-30T22:21:32.518Z,1.08
2023-01-30T22:23:59.161Z,1.77
2023-01-30T22:26:26.620Z,1.75
2023-01-30T22:28:55.087Z,1.55
2023-01-30T22:31:22.975Z,1.75
2023-01-30T22:33:53.484Z,1.60
2023-01-30T22:36:22.530Z,2.33
2023-01-30T22:38:50.521Z,2.15
2023-01-30T22:41:19.691Z,1.90
2023-01-30T22:43:49.087Z,2.25
2023-01-30T22:46:17.902Z,1.83
2023-01-30T22:48:44.898Z,2.13
2023-01-30T22:51:20.210Z,1.80
2023-01-30T22:53:49.301Z,1.63
2023-01-30T22:56:18.792Z,1.52
2023-01-30T22:58:47.361Z,1.48
2023-01-30T23:01:23.215Z,2.42
2023-01-30T23:03:58.187Z,1.67
2023-01-30T23:06:25.469Z,1.55
2023-01-30T23:08:53.744Z,1.45
2023-01-30T23:11:22.245Z,1.15
2023-01-30T23:13:51.197Z,2.05
2023-01-30T23:16:20.788Z,2.45
2023-01-30T23:18:58.188Z,1.88
2023-01-30T23:21:29.444Z,1.77
2023-01-30T23:23:58.849Z,2.10
2023-01-30T23:26:31.111Z,2.50
2023-01-30T23:28:58.643Z,1.33
2023-01-30T23:31:27.231Z,1.60
2023-01-30T23:33:55.734Z,1.95
2023-01-30T23:36:23.061Z,2.85
2023-01-30T23:38:51.044Z,1.70
2023-01-30T23:41:26.409Z,1.63
2023-01-30T23:46:23.966Z,1.88
2023-01-30T23:48:53.482Z,2.58
2023-01-30T23:51:23.356Z,2.35
2023-01-30T23:53:51.425Z,1.98
2023-01-30T23:56:19.408Z,2.17
2023-01-30T23:58:46.677Z,2.08
